createdAt,value
2022-12-26T00:01:09.386Z,3.90
2022-12-26T00:03:37.542Z,5.68
2022-12-26T00:06:11.698Z,7.88
2022-12-26T00:08:39.508Z,9.30
2022-12-26T00:11:11.521Z,9.30
2022-12-26T00:13:41.620Z,6.88
2022-12-26T00:16:20.368Z,8.55
2022-12-26T00:18:48.538Z,5.10
2022-12-26T00:21:17.635Z,9.57
2022-12-26T00:23:46.187Z,4.75
2022-12-26T00:26:19.964Z,9.05
2022-12-26T00:28:48.206Z,9.10
2022-12-26T00:31:18.656Z,11.52
2022-12-26T00:33:46.690Z,5.87
2022-12-26T00:36:20.034Z,6.00
2022-12-26T00:38:48.359Z,5.75
2022-12-26T00:41:16.974Z,3.40
2022-12-26T00:43:44.644Z,3.67
2022-12-26T00:46:12.467Z,11.30
2022-12-26T00:48:43.071Z,5.43
2022-12-26T00:51:10.717Z,6.07
2022-12-26T00:53:38.411Z,5.15
2022-12-26T00:56:06.516Z,6.70
2022-12-26T00:58:34.140Z,9.30
2022-12-26T01:01:31.209Z,7.43
2022-12-26T01:03:58.984Z,8.98
2022-12-26T01:06:26.657Z,7.55
2022-12-26T01:08:54.962Z,7.75
2022-12-26T01:11:41.462Z,11.20
2022-12-26T01:14:17.548Z,8.43
2022-12-26T01:16:46.497Z,6.70
2022-12-26T01:19:14.305Z,3.47
2022-12-26T01:21:43.275Z,6.32
2022-12-26T01:24:10.911Z,4.20
2022-12-26T01:26:38.494Z,7.05
2022-12-26T01:29:06.053Z,3.25
2022-12-26T01:31:33.654Z,3.83
2022-12-26T01:34:01.218Z,9.00
2022-12-26T01:36:28.843Z,4.80
2022-12-26T01:38:56.393Z,4.70
2022-12-26T01:41:24.213Z,4.13
2022-12-26T01:43:51.679Z,5.70
2022-12-26T01:46:23.116Z,6.53
2022-12-26T01:48:51.626Z,4.33
2022-12-26T01:51:24.660Z,4.13
2022-12-26T01:54:38.148Z,8.38
2022-12-26T01:56:47.082Z,14.70
2022-12-26T01:59:26.038Z,7.03
2022-12-26T02:01:55.417Z,6.17
2022-12-26T02:04:50.275Z,7.80
2022-12-26T02:07:17.927Z,7.20
2022-12-26T02:09:45.568Z,4.60
2022-12-26T02:12:35.261Z,5.32
2022-12-26T02:15:08.872Z,11.23
2022-12-26T02:17:37.376Z,5.75
2022-12-26T02:20:15.264Z,9.00
2022-12-26T02:23:04.525Z,3.30
2022-12-26T02:25:37.739Z,6.15
2022-12-26T02:28:23.482Z,8.07
2022-12-26T02:31:27.739Z,8.45
2022-12-26T02:34:15.568Z,4.03
2022-12-26T02:36:46.000Z,6.00
2022-12-26T02:39:58.956Z,7.05
2022-12-26T02:42:48.046Z,4.50
2022-12-26T02:45:57.170Z,19.85
2022-12-26T02:48:33.663Z,4.68
2022-12-26T02:51:40.145Z,3.65
2022-12-26T02:54:43.783Z,7.72
2022-12-26T02:57:39.559Z,9.10
2022-12-26T03:00:33.353Z,3.83
2022-12-26T03:03:40.253Z,6.80
2022-12-26T03:06:34.964Z,5.95
2022-12-26T03:09:26.030Z,8.57
2022-12-26T03:12:19.191Z,4.77
2022-12-26T03:14:57.623Z,3.72
2022-12-26T03:17:49.392Z,5.97
2022-12-26T03:20:28.909Z,2.58
2022-12-26T03:23:00.310Z,5.95
2022-12-26T03:26:08.587Z,8.50
2022-12-26T03:28:36.281Z,4.20
2022-12-26T03:31:10.198Z,3.25
2022-12-26T03:33:58.987Z,11.07
2022-12-26T03:36:51.564Z,5.50
2022-12-26T03:40:19.408Z,5.87
2022-12-26T03:43:35.848Z,3.45
2022-12-26T03:46:36.323Z,3.13
2022-12-26T03:49:34.736Z,7.18
2022-12-26T03:52:34.015Z,4.25
2022-12-26T03:55:41.654Z,6.27
2022-12-26T03:58:41.152Z,3.15
2022-12-26T04:01:40.363Z,2.17
2022-12-26T04:04:31.925Z,2.35
2022-12-26T04:07:28.613Z,1.58
2022-12-26T04:10:26.094Z,3.73
2022-12-26T04:13:14.811Z,1.65
2022-12-26T04:16:10.062Z,1.83
2022-12-26T04:19:09.194Z,1.42
2022-12-26T04:21:58.268Z,6.07
2022-12-26T04:24:49.925Z,0.93
2022-12-26T04:27:38.212Z,2.42
2022-12-26T04:30:24.784Z,2.08
2022-12-26T04:33:16.276Z,3.70
2022-12-26T04:36:16.542Z,0.45
2022-12-26T04:39:09.701Z,2.23
2022-12-26T04:41:58.489Z,1.63
2022-12-26T04:44:28.951Z,1.52
2022-12-26T04:46:57.808Z,2.05
2022-12-26T04:49:43.854Z,1.80
2022-12-26T04:52:14.836Z,2.97
2022-12-26T04:54:42.452Z,5.03
2022-12-26T04:57:11.231Z,3.13
2022-12-26T04:59:38.778Z,0.43
2022-12-26T05:02:25.265Z,1.10
2022-12-26T05:05:25.663Z,0.87
2022-12-26T05:08:22.741Z,2.17
2022-12-26T05:10:50.301Z,2.80
2022-12-26T05:13:17.833Z,0.98
2022-12-26T05:16:03.962Z,1.27
2022-12-26T05:18:50.031Z,3.80
2022-12-26T05:21:37.591Z,0.85
2022-12-26T05:24:24.253Z,1.60
2022-12-26T05:27:10.452Z,0.68
2022-12-26T05:29:38.093Z,2.40
2022-12-26T05:32:05.630Z,1.73
2022-12-26T05:34:33.219Z,4.25
2022-12-26T05:37:00.787Z,7.20
2022-12-26T05:39:28.346Z,3.10
2022-12-26T05:41:56.028Z,2.17
2022-12-26T05:44:23.672Z,3.63
2022-12-26T05:46:51.265Z,1.08
2022-12-26T05:49:18.893Z,6.07
2022-12-26T05:51:46.395Z,2.45
2022-12-26T05:54:14.165Z,1.02
2022-12-26T05:56:45.887Z,3.30
2022-12-26T05:59:16.807Z,4.57
2022-12-26T06:01:44.451Z,5.28
2022-12-26T06:04:12.108Z,4.47
2022-12-26T06:06:39.720Z,2.28
2022-12-26T06:09:07.489Z,4.43
2022-12-26T06:11:35.081Z,4.70
2022-12-26T06:14:02.745Z,6.65
2022-12-26T06:16:30.926Z,4.03
2022-12-26T06:18:58.555Z,3.85
2022-12-26T06:21:26.364Z,9.23
2022-12-26T06:23:54.554Z,5.53
2022-12-26T06:26:22.484Z,4.78
2022-12-26T06:28:50.012Z,9.95
2022-12-26T06:31:21.469Z,5.30
2022-12-26T06:33:51.632Z,11.37
2022-12-26T06:36:21.770Z,8.65
2022-12-26T06:38:50.207Z,6.22
2022-12-26T06:41:19.942Z,6.80
2022-12-26T06:43:47.906Z,4.20
2022-12-26T06:46:18.367Z,3.60
2022-12-26T06:48:46.159Z,6.93
2022-12-26T06:51:16.465Z,4.25
2022-12-26T06:53:44.408Z,4.80
2022-12-26T06:56:14.975Z,3.60
2022-12-26T06:58:43.876Z,5.17
2022-12-26T07:01:17.339Z,7.25
2022-12-26T07:03:51.155Z,4.53
2022-12-26T07:06:19.334Z,4.43
2022-12-26T07:08:46.930Z,3.55
2022-12-26T07:11:19.942Z,4.83
2022-12-26T07:13:47.748Z,2.40
2022-12-26T07:16:15.645Z,4.18
2022-12-26T07:18:43.287Z,5.00
2022-12-26T07:21:13.506Z,3.72
2022-12-26T07:23:41.505Z,5.10
2022-12-26T07:26:09.563Z,2.67
2022-12-26T07:28:37.644Z,6.30
2022-12-26T07:31:05.830Z,5.55
2022-12-26T07:33:34.552Z,3.55
2022-12-26T07:36:06.540Z,3.27
2022-12-26T07:38:34.182Z,5.47
2022-12-26T07:41:24.598Z,7.65
2022-12-26T07:43:52.861Z,4.82
2022-12-26T07:46:20.691Z,4.70
2022-12-26T07:48:48.886Z,4.83
2022-12-26T07:51:16.926Z,6.47
2022-12-26T07:53:44.578Z,3.10
2022-12-26T07:56:12.290Z,3.58
2022-12-26T07:58:40.084Z,4.80
2022-12-26T08:01:07.813Z,4.20
2022-12-26T08:03:35.664Z,5.38
2022-12-26T08:06:03.498Z,2.92
2022-12-26T08:08:31.397Z,3.13
2022-12-26T08:11:03.281Z,4.20
2022-12-26T08:13:31.386Z,3.43
2022-12-26T08:16:00.805Z,5.47
2022-12-26T08:18:28.419Z,3.03
2022-12-26T08:20:58.566Z,7.32
2022-12-26T08:23:26.489Z,6.63
2022-12-26T08:25:54.068Z,4.43
2022-12-26T08:28:21.879Z,5.68
2022-12-26T08:30:50.258Z,4.65
2022-12-26T08:33:18.121Z,2.25
2022-12-26T08:35:45.631Z,2.50
2022-12-26T08:38:13.232Z,3.87
2022-12-26T08:40:43.965Z,1.88
2022-12-26T08:43:30.197Z,2.83
2022-12-26T08:46:10.692Z,6.75
2022-12-26T08:48:40.265Z,2.17
2022-12-26T08:51:11.619Z,3.17
2022-12-26T08:53:39.408Z,5.05
2022-12-26T08:56:15.446Z,2.53
2022-12-26T08:58:43.383Z,2.72
2022-12-26T09:01:18.589Z,2.45
2022-12-26T09:03:47.265Z,1.93
2022-12-26T09:06:15.917Z,3.20
2022-12-26T09:08:43.555Z,1.48
2022-12-26T09:11:22.939Z,3.25
2022-12-26T09:13:51.250Z,2.90
2022-12-26T09:16:22.225Z,1.60
2022-12-26T09:18:55.146Z,3.75
2022-12-26T09:21:23.530Z,2.70
2022-12-26T09:23:57.325Z,1.98
2022-12-26T09:26:25.224Z,1.75
2022-12-26T09:28:53.587Z,0.73
2022-12-26T09:31:24.152Z,2.30
2022-12-26T09:33:53.521Z,2.40
2022-12-26T09:36:24.477Z,1.73
2022-12-26T09:38:52.550Z,1.58
2022-12-26T09:41:32.306Z,1.80
2022-12-26T09:44:08.845Z,2.67
2022-12-26T09:46:59.676Z,1.10
2022-12-26T09:49:56.552Z,3.58
2022-12-26T09:52:44.663Z,3.00
2022-12-26T09:55:27.684Z,1.73
2022-12-26T09:58:05.239Z,4.03
2022-12-26T10:00:44.277Z,1.30
2022-12-26T10:03:12.561Z,2.67
2022-12-26T10:05:54.486Z,2.15
2022-12-26T10:08:38.794Z,2.50
2022-12-26T10:11:11.530Z,1.58
2022-12-26T10:13:50.118Z,1.92
2022-12-26T10:16:24.924Z,1.20
2022-12-26T10:19:25.044Z,1.45
2022-12-26T10:22:28.566Z,1.17
2022-12-26T10:24:59.233Z,0.57
2022-12-26T10:27:29.407Z,2.78
2022-12-26T10:30:02.447Z,2.90
2022-12-26T10:32:39.965Z,1.58
2022-12-26T10:35:31.570Z,3.07
2022-12-26T10:38:05.330Z,1.75
2022-12-26T10:40:45.227Z,3.15
2022-12-26T10:43:25.227Z,1.80
2022-12-26T10:46:13.795Z,3.55
2022-12-26T10:48:41.519Z,3.83
2022-12-26T10:51:12.871Z,2.30
2022-12-26T10:53:48.909Z,0.57
2022-12-26T10:56:18.500Z,2.38
2022-12-26T10:58:49.750Z,2.30
2022-12-26T11:01:33.502Z,2.53
2022-12-26T11:04:04.396Z,3.15
2022-12-26T11:06:43.575Z,1.67
2022-12-26T11:09:45.833Z,1.85
2022-12-26T11:12:39.275Z,1.02
2022-12-26T11:15:19.840Z,4.83
2022-12-26T11:17:50.692Z,2.15
2022-12-26T11:20:21.469Z,4.22
2022-12-26T11:22:49.128Z,1.02
2022-12-26T11:25:25.562Z,2.80
2022-12-26T11:27:59.517Z,6.30
2022-12-26T11:30:31.083Z,5.30
2022-12-26T11:33:14.793Z,7.25
2022-12-26T11:35:49.366Z,5.75
2022-12-26T11:38:42.429Z,7.18
2022-12-26T11:41:32.946Z,4.00
2022-12-26T11:44:09.521Z,6.70
2022-12-26T11:46:44.684Z,5.53
2022-12-26T11:49:28.467Z,3.40
2022-12-26T11:51:59.838Z,3.97
2022-12-26T11:54:37.110Z,3.90
2022-12-26T11:57:17.113Z,3.90
2022-12-26T11:59:48.301Z,2.35
2022-12-26T12:02:29.364Z,1.42
2022-12-26T12:05:00.811Z,3.47
2022-12-26T12:07:30.156Z,1.80
2022-12-26T12:10:12.545Z,4.82
2022-12-26T12:13:04.392Z,3.67
2022-12-26T12:15:59.107Z,2.80
2022-12-26T12:18:48.672Z,3.58
2022-12-26T12:21:53.912Z,5.37
2022-12-26T12:24:46.528Z,6.93
2022-12-26T12:27:36.123Z,4.13
2022-12-26T12:30:17.058Z,5.47
2022-12-26T12:32:56.735Z,4.80
2022-12-26T12:35:43.238Z,3.73
2022-12-26T12:38:34.921Z,4.28
2022-12-26T12:41:12.147Z,3.15
2022-12-26T12:43:42.080Z,6.53
2022-12-26T12:46:47.484Z,3.15
2022-12-26T12:49:36.314Z,7.17
2022-12-26T12:52:36.838Z,6.20
2022-12-26T12:55:26.167Z,5.40
2022-12-26T12:58:06.375Z,6.10
2022-12-26T13:00:45.277Z,6.72
2022-12-26T13:03:37.639Z,4.27
2022-12-26T13:06:08.057Z,8.57
2022-12-26T13:09:02.581Z,7.93
2022-12-26T13:11:38.261Z,6.57
2022-12-26T13:14:17.435Z,4.18
2022-12-26T13:17:06.342Z,1.40
2022-12-26T13:19:52.007Z,2.42
2022-12-26T13:22:54.904Z,2.60
2022-12-26T13:25:26.817Z,2.00
2022-12-26T13:28:09.666Z,5.65
2022-12-26T13:30:38.866Z,6.67
2022-12-26T13:33:06.633Z,4.95
2022-12-26T13:36:06.862Z,3.65
2022-12-26T13:38:56.113Z,6.22
2022-12-26T13:41:44.285Z,6.00
2022-12-26T13:44:20.701Z,4.13
2022-12-26T13:46:48.732Z,2.95
2022-12-26T13:49:39.864Z,5.07
2022-12-26T13:52:19.459Z,3.38
2022-12-26T13:54:46.986Z,5.03
2022-12-26T13:57:45.081Z,3.23
2022-12-26T14:00:46.169Z,4.93
2022-12-26T14:03:24.698Z,2.70
2022-12-26T14:05:55.292Z,3.88
2022-12-26T14:08:33.259Z,5.95
2022-12-26T14:11:25.019Z,3.70
2022-12-26T14:14:33.077Z,2.92
2022-12-26T14:17:24.109Z,7.32
2022-12-26T14:20:05.747Z,5.60
2022-12-26T14:22:47.001Z,6.60
2022-12-26T14:25:38.850Z,7.80
2022-12-26T14:28:38.617Z,9.98
2022-12-26T14:31:25.948Z,5.20
2022-12-26T14:34:18.799Z,6.13
2022-12-26T14:36:57.156Z,5.28
2022-12-26T14:40:01.725Z,3.90
2022-12-26T14:42:49.387Z,4.65
2022-12-26T14:45:26.045Z,5.32
2022-12-26T14:47:54.138Z,8.00
2022-12-26T14:50:52.255Z,4.80
2022-12-26T14:53:28.656Z,7.47
2022-12-26T14:56:14.054Z,9.40
2022-12-26T14:58:45.322Z,6.82
2022-12-26T15:01:13.084Z,8.27
2022-12-26T15:03:50.148Z,6.70
2022-12-26T15:06:20.996Z,7.47
2022-12-26T15:09:03.772Z,4.45
2022-12-26T15:11:53.179Z,2.75
2022-12-26T15:14:39.595Z,4.60
2022-12-26T15:17:36.349Z,4.57
2022-12-26T15:21:01.316Z,2.77
2022-12-26T15:23:31.467Z,4.07
2022-12-26T15:26:32.979Z,3.50
2022-12-26T15:29:23.431Z,3.45
2022-12-26T15:32:28.660Z,6.50
2022-12-26T15:34:58.176Z,5.57
2022-12-26T15:37:53.588Z,6.15
2022-12-26T15:40:28.717Z,3.17
2022-12-26T15:43:17.466Z,5.40
2022-12-26T15:45:45.107Z,2.72
2022-12-26T15:48:35.731Z,3.90
2022-12-26T15:51:22.156Z,2.35
2022-12-26T15:54:07.923Z,2.53
2022-12-26T15:57:23.533Z,3.13
2022-12-26T16:00:06.001Z,0.52
2022-12-26T16:02:47.042Z,2.00
2022-12-26T16:05:17.444Z,3.53
2022-12-26T16:08:04.202Z,0.75
2022-12-26T16:10:34.239Z,0.32
2022-12-26T16:13:14.821Z,1.45
2022-12-26T16:15:49.359Z,2.80
2022-12-26T16:18:22.714Z,1.25
2022-12-26T16:21:26.484Z,4.15
2022-12-26T16:23:55.347Z,2.42
2022-12-26T16:26:30.331Z,4.13
2022-12-26T16:29:00.688Z,5.10
2022-12-26T16:31:31.301Z,5.82
2022-12-26T16:34:00.186Z,5.63
2022-12-26T16:36:33.136Z,4.63
2022-12-26T16:39:00.728Z,3.30
2022-12-26T16:41:32.956Z,5.27
2022-12-26T16:44:38.036Z,3.35
2022-12-26T16:47:12.294Z,3.17
2022-12-26T16:49:43.500Z,4.25
2022-12-26T16:52:46.692Z,3.88
2022-12-26T16:55:35.990Z,5.20
2022-12-26T16:58:13.489Z,2.85
2022-12-26T17:00:47.955Z,3.85
2022-12-26T17:03:27.780Z,3.45
2022-12-26T17:05:55.834Z,3.85
2022-12-26T17:08:24.602Z,4.93
2022-12-26T17:10:52.547Z,3.85
2022-12-26T17:13:26.484Z,7.85
2022-12-26T17:15:57.801Z,4.07
2022-12-26T17:18:45.082Z,6.53
2022-12-26T17:21:22.462Z,8.50
2022-12-26T17:24:05.230Z,7.88
2022-12-26T17:26:33.567Z,7.78
2022-12-26T17:29:01.143Z,5.38
2022-12-26T17:31:39.076Z,5.35
2022-12-26T17:34:25.662Z,3.50
2022-12-26T17:37:18.631Z,8.73
2022-12-26T17:39:41.976Z,4.30
2022-12-26T17:42:13.464Z,2.72
2022-12-26T17:44:43.449Z,1.95
2022-12-26T17:47:23.618Z,2.77
2022-12-26T17:49:53.343Z,1.20
2022-12-26T17:52:27.249Z,1.92
2022-12-26T17:54:57.207Z,3.58
2022-12-26T17:57:28.340Z,4.75
2022-12-26T17:59:56.841Z,3.83
2022-12-26T18:02:24.735Z,4.82
2022-12-26T18:04:52.657Z,2.47
2022-12-26T18:07:30.979Z,4.40
2022-12-26T18:10:01.443Z,5.32
2022-12-26T18:12:29.369Z,8.90
2022-12-26T18:15:01.610Z,6.32
2022-12-26T18:17:33.204Z,7.10
2022-12-26T18:20:02.444Z,9.80
2022-12-26T18:22:30.268Z,7.88
2022-12-26T18:24:57.967Z,8.37
2022-12-26T18:27:30.374Z,11.38
2022-12-26T18:29:59.040Z,9.75
2022-12-26T18:32:29.782Z,12.18
2022-12-26T18:34:57.722Z,10.15
2022-12-26T18:37:28.299Z,15.30
2022-12-26T18:39:56.434Z,6.85
2022-12-26T18:42:26.396Z,7.15
2022-12-26T18:44:54.676Z,5.13
2022-12-26T18:47:23.231Z,5.50
2022-12-26T18:49:51.287Z,5.03
2022-12-26T18:52:18.982Z,3.72
2022-12-26T18:54:46.617Z,3.60
2022-12-26T18:57:19.547Z,6.55
2022-12-26T18:59:48.467Z,6.40
2022-12-26T19:02:18.786Z,3.70
2022-12-26T19:04:48.736Z,11.38
2022-12-26T19:07:18.597Z,7.03
2022-12-26T19:09:48.527Z,3.65
2022-12-26T19:12:16.989Z,4.13
2022-12-26T19:14:45.328Z,4.43
2022-12-26T19:17:13.700Z,3.33
2022-12-26T19:19:41.600Z,2.55
2022-12-26T19:22:09.254Z,2.10
2022-12-26T19:24:36.845Z,3.92
2022-12-26T19:27:04.740Z,5.97
2022-12-26T19:29:32.401Z,5.38
2022-12-26T19:32:00.229Z,7.15
2022-12-26T19:34:29.078Z,6.07
2022-12-26T19:36:56.786Z,5.15
2022-12-26T19:39:24.325Z,5.30
2022-12-26T19:41:51.927Z,8.02
2022-12-26T19:44:19.475Z,5.75
2022-12-26T19:46:47.748Z,6.00
2022-12-26T19:49:15.313Z,9.48
2022-12-26T19:51:43.054Z,6.97
2022-12-26T19:54:11.255Z,3.67
2022-12-26T19:56:38.949Z,9.60
2022-12-26T19:59:06.520Z,4.55
2022-12-26T20:01:34.254Z,5.50
2022-12-26T20:04:04.191Z,3.77
2022-12-26T20:06:35.228Z,8.18
2022-12-26T20:09:06.973Z,6.68
2022-12-26T20:11:38.661Z,5.68
2022-12-26T20:14:08.438Z,9.73
2022-12-26T20:19:25.245Z,8.02
2022-12-26T20:21:53.558Z,12.95
2022-12-26T20:24:22.968Z,9.93
2022-12-26T20:26:50.868Z,6.78
2022-12-26T20:29:18.584Z,8.17
2022-12-26T20:31:46.579Z,7.30
2022-12-26T20:34:14.498Z,8.90
2022-12-26T20:36:42.329Z,21.15
2022-12-26T20:39:18.208Z,40.50
2022-12-26T20:41:46.510Z,14.00
2022-12-26T20:44:15.733Z,9.45
2022-12-26T20:46:43.948Z,12.60
2022-12-26T20:49:11.784Z,14.55
2022-12-26T20:51:41.032Z,14.68
2022-12-26T20:54:10.470Z,13.47
2022-12-26T20:56:39.118Z,11.82
2022-12-26T20:59:07.641Z,14.95
2022-12-26T21:01:37.591Z,16.02
2022-12-26T21:04:05.878Z,13.95
2022-12-26T21:06:36.233Z,12.63
2022-12-26T21:09:06.727Z,13.23
2022-12-26T21:11:38.277Z,11.30
2022-12-26T21:14:12.557Z,14.70
2022-12-26T21:16:52.170Z,15.40
2022-12-26T21:19:21.857Z,15.63
2022-12-26T21:21:53.149Z,21.00
2022-12-26T21:24:28.836Z,25.92
2022-12-26T21:26:57.036Z,35.38
2022-12-26T21:29:30.294Z,39.58
2022-12-26T21:31:59.237Z,35.20
2022-12-26T21:34:28.832Z,44.95
2022-12-26T21:37:15.905Z,33.20
2022-12-26T21:39:44.019Z,18.50
2022-12-26T21:42:11.822Z,24.40
2022-12-26T21:44:39.524Z,23.50
2022-12-26T21:47:09.890Z,19.27
2022-12-26T21:49:37.565Z,20.23
2022-12-26T21:52:06.738Z,14.70
2022-12-26T21:54:52.771Z,16.33
2022-12-26T21:57:21.577Z,15.83
2022-12-26T21:59:58.659Z,10.68
2022-12-26T22:02:48.740Z,9.15
2022-12-26T22:05:17.960Z,9.23
2022-12-26T22:07:46.117Z,10.20
2022-12-26T22:10:33.365Z,14.30
2022-12-26T22:13:02.882Z,16.48
2022-12-26T22:15:49.099Z,14.70
2022-12-26T22:18:17.068Z,13.43
2022-12-26T22:20:46.167Z,9.02
2022-12-26T22:23:14.216Z,10.87
2022-12-26T22:25:41.837Z,8.38
2022-12-26T22:28:09.431Z,7.25
2022-12-26T22:30:36.973Z,5.38
2022-12-26T22:33:04.663Z,3.42
2022-12-26T22:35:33.020Z,9.00
2022-12-26T22:38:00.601Z,6.32
2022-12-26T22:40:28.096Z,6.75
2022-12-26T22:42:55.706Z,7.07
2022-12-26T22:45:23.329Z,4.40
2022-12-26T22:47:50.992Z,9.87
2022-12-26T22:50:19.020Z,6.88
2022-12-26T22:52:46.661Z,6.30
2022-12-26T22:55:14.225Z,6.00
2022-12-26T22:57:42.273Z,8.45
2022-12-26T23:00:13.580Z,6.73
2022-12-26T23:02:41.568Z,5.55
2022-12-26T23:05:11.666Z,6.10
2022-12-26T23:07:39.777Z,10.43
2022-12-26T23:10:08.174Z,4.88
2022-12-26T23:12:45.479Z,6.50
2022-12-26T23:15:14.767Z,3.65
2022-12-26T23:18:07.358Z,6.28
2022-12-26T23:20:55.490Z,4.43
2022-12-26T23:23:23.716Z,6.45
2022-12-26T23:25:51.394Z,4.53
2022-12-26T23:28:37.521Z,5.35
2022-12-26T23:31:05.209Z,2.80
2022-12-26T23:33:32.801Z,2.50
2022-12-26T23:36:00.448Z,4.85
2022-12-26T23:38:28.131Z,2.30
2022-12-26T23:40:55.711Z,7.28
2022-12-26T23:43:23.255Z,7.40
2022-12-26T23:45:50.823Z,8.63
2022-12-26T23:48:18.406Z,6.03
2022-12-26T23:50:46.260Z,8.63
2022-12-26T23:53:13.793Z,7.47
2022-12-26T23:55:44.382Z,8.10
2022-12-26T23:58:12.085Z,15.43
